createdAt,value
2022-08-29T00:03:14.029Z,11.49
2022-08-29T00:08:17.668Z,11.43
2022-08-29T00:13:23.262Z,11.54
2022-08-29T00:18:27.181Z,11.51
2022-08-29T00:23:31.193Z,11.36
2022-08-29T00:28:36.141Z,11.29
2022-08-29T00:33:40.130Z,11.26
2022-08-29T00:38:43.678Z,11.21
2022-08-29T00:43:48.595Z,11.21
2022-08-29T00:48:56.905Z,11.19
2022-08-29T00:54:04.174Z,10.98
2022-08-29T00:59:12.788Z,10.91
2022-08-29T01:04:24.109Z,10.98
2022-08-29T01:09:29.611Z,10.80
2022-08-29T01:14:38.394Z,10.87
2022-08-29T01:19:46.631Z,10.85
2022-08-29T01:24:54.608Z,10.49
2022-08-29T01:29:58.339Z,10.82
2022-08-29T01:35:02.731Z,10.64
2022-08-29T01:40:09.426Z,10.55
2022-08-29T01:45:13.481Z,10.38
2022-08-29T01:50:16.994Z,10.36
2022-08-29T01:55:22.013Z,10.39
2022-08-29T02:00:25.895Z,10.46
2022-08-29T02:05:30.113Z,10.56
2022-08-29T02:10:34.975Z,10.35
2022-08-29T02:15:38.591Z,10.11
2022-08-29T02:20:42.099Z,10.28
2022-08-29T02:25:47.725Z,10.39
2022-08-29T02:30:55.786Z,10.35
2022-08-29T02:36:01.112Z,10.11
2022-08-29T02:41:10.218Z,10.10
2022-08-29T02:46:17.558Z,10.09
2022-08-29T02:51:23.155Z,9.93
2022-08-29T02:56:28.611Z,9.99
2022-08-29T03:01:32.325Z,9.99
2022-08-29T03:06:36.645Z,9.92
2022-08-29T03:11:42.176Z,9.91
2022-08-29T03:16:46.077Z,9.74
2022-08-29T03:21:49.692Z,9.67
2022-08-29T03:26:56.583Z,9.78
2022-08-29T03:32:00.735Z,9.75
2022-08-29T03:37:05.490Z,9.58
2022-08-29T03:42:10.570Z,9.44
2022-08-29T03:47:14.503Z,9.58
2022-08-29T03:52:18.332Z,9.51
2022-08-29T03:57:25.810Z,9.49
2022-08-29T04:02:31.796Z,9.27
2022-08-29T04:07:43.214Z,9.42
2022-08-29T04:12:54.309Z,9.34
2022-08-29T04:18:00.790Z,9.24
2022-08-29T04:23:04.968Z,9.19
2022-08-29T04:28:12.666Z,9.19
2022-08-29T04:33:22.652Z,9.54
2022-08-29T04:38:26.686Z,9.29
2022-08-29T04:43:31.724Z,9.07
2022-08-29T04:48:35.528Z,9.20
2022-08-29T04:53:40.381Z,9.24
2022-08-29T04:58:45.969Z,9.14
2022-08-29T05:03:50.048Z,9.25
2022-08-29T05:08:55.107Z,9.52
2022-08-29T05:14:05.073Z,9.56
2022-08-29T05:19:09.813Z,9.93
2022-08-29T05:24:14.088Z,9.75
2022-08-29T05:29:20.992Z,9.88
2022-08-29T05:34:33.975Z,9.93
2022-08-29T05:39:39.977Z,10.04
2022-08-29T05:44:45.115Z,10.11
2022-08-29T05:49:49.721Z,11.25
2022-08-29T05:54:53.514Z,11.53
2022-08-29T05:59:58.969Z,11.50
2022-08-29T06:05:04.657Z,11.86
2022-08-29T06:10:09.085Z,13.33
2022-08-29T06:15:14.071Z,14.37
2022-08-29T06:20:17.695Z,13.07
2022-08-29T06:25:38.584Z,12.97
2022-08-29T06:30:45.242Z,12.58
2022-08-29T06:35:48.950Z,12.90
2022-08-29T06:40:52.585Z,13.34
2022-08-29T06:45:57.603Z,14.24
2022-08-29T06:51:02.157Z,15.41
2022-08-29T06:56:06.914Z,16.76
2022-08-29T07:01:19.157Z,17.86
2022-08-29T07:06:23.489Z,18.29
2022-08-29T07:11:28.223Z,18.23
2022-08-29T07:16:35.722Z,18.42
2022-08-29T07:21:40.283Z,18.97
2022-08-29T07:26:45.123Z,19.19
2022-08-29T07:31:50.613Z,19.13
2022-08-29T07:36:54.216Z,19.37
2022-08-29T07:41:59.769Z,19.13
2022-08-29T07:47:04.996Z,19.70
2022-08-29T07:52:08.474Z,19.09
2022-08-29T07:57:12.002Z,19.20
2022-08-29T08:02:18.270Z,19.69
2022-08-29T08:07:21.951Z,19.74
2022-08-29T08:12:33.079Z,20.05
2022-08-29T08:17:42.051Z,20.73
2022-08-29T08:22:47.582Z,20.56
2022-08-29T08:27:51.289Z,21.23
2022-08-29T08:32:56.323Z,20.34
2022-08-29T08:37:59.873Z,21.16
2022-08-29T08:43:03.640Z,21.53
2022-08-29T08:48:12.013Z,21.44
2022-08-29T08:53:19.436Z,20.22
2022-08-29T08:58:33.120Z,20.25
2022-08-29T09:04:00.770Z,20.36
2022-08-29T09:09:18.678Z,20.31
2022-08-29T09:14:36.022Z,21.37
2022-08-29T09:19:41.760Z,21.19
2022-08-29T09:24:50.165Z,21.93
2022-08-29T09:29:58.254Z,21.69
2022-08-29T09:35:19.970Z,22.03
2022-08-29T09:40:27.361Z,22.13
2022-08-29T09:45:30.995Z,22.71
2022-08-29T09:50:36.248Z,22.43
2022-08-29T09:55:45.684Z,22.33
2022-08-29T10:01:01.660Z,21.74
2022-08-29T10:06:13.617Z,21.47
2022-08-29T10:11:26.645Z,22.08
2022-08-29T10:16:40.157Z,22.30
2022-08-29T10:21:55.033Z,21.87
2022-08-29T10:27:10.459Z,22.37
2022-08-29T10:32:29.300Z,22.44
2022-08-29T10:37:53.988Z,22.54
2022-08-29T10:43:21.500Z,22.83
2022-08-29T10:48:31.649Z,23.74
2022-08-29T10:53:42.373Z,22.77
2022-08-29T10:58:57.076Z,23.09
2022-08-29T11:04:11.095Z,22.73
2022-08-29T11:09:21.835Z,23.20
2022-08-29T11:14:33.171Z,23.96
2022-08-29T11:19:49.452Z,23.80
2022-08-29T11:25:01.576Z,22.99
2022-08-29T11:30:09.029Z,23.25
2022-08-29T11:35:21.370Z,23.68
2022-08-29T11:46:09.489Z,23.37
2022-08-29T11:51:36.222Z,23.56
2022-08-29T11:56:41.651Z,22.92
2022-08-29T12:02:00.828Z,23.16
2022-08-29T12:07:05.145Z,23.29
2022-08-29T12:12:36.089Z,23.86
2022-08-29T12:18:01.505Z,24.05
2022-08-29T12:23:08.598Z,24.41
2022-08-29T12:28:45.606Z,24.51
2022-08-29T12:34:01.725Z,24.35
2022-08-29T12:39:19.564Z,24.24
2022-08-29T12:44:29.993Z,24.17
2022-08-29T12:49:42.767Z,23.72
2022-08-29T12:54:46.924Z,23.83
2022-08-29T12:59:54.821Z,24.40
2022-08-29T13:04:58.471Z,24.67
2022-08-29T13:10:03.183Z,24.58
2022-08-29T13:15:10.683Z,23.98
2022-08-29T13:20:54.822Z,24.51
2022-08-29T13:26:02.866Z,23.59
2022-08-29T13:31:23.573Z,23.88
2022-08-29T13:36:33.107Z,25.01
2022-08-29T13:41:37.956Z,25.37
2022-08-29T13:46:47.226Z,24.63
2022-08-29T13:51:51.627Z,24.72
2022-08-29T13:56:58.009Z,24.87
2022-08-29T14:02:11.682Z,24.59
2022-08-29T14:07:20.044Z,24.34
2022-08-29T14:12:33.821Z,23.80
2022-08-29T14:17:40.926Z,23.30
2022-08-29T14:22:44.955Z,23.95
2022-08-29T14:27:48.998Z,23.58
2022-08-29T14:32:54.856Z,23.93
2022-08-29T14:37:58.646Z,23.58
2022-08-29T14:43:03.146Z,24.01
2022-08-29T14:48:08.187Z,24.12
2022-08-29T14:53:11.883Z,23.82
2022-08-29T14:58:15.977Z,23.83
2022-08-29T15:03:21.352Z,23.98
2022-08-29T15:08:25.147Z,23.75
2022-08-29T15:13:29.195Z,24.04
2022-08-29T15:19:14.839Z,23.65
2022-08-29T15:23:58.979Z,23.72
2022-08-29T15:29:04.171Z,23.32
2022-08-29T15:34:10.037Z,23.56
2022-08-29T15:39:14.185Z,22.99
2022-08-29T15:44:18.394Z,23.23
2022-08-29T15:49:25.160Z,23.43
2022-08-29T15:54:28.762Z,23.23
2022-08-29T15:59:56.419Z,23.08
2022-08-29T16:04:47.830Z,22.75
2022-08-29T16:09:52.063Z,23.05
2022-08-29T16:14:59.602Z,22.48
2022-08-29T16:20:11.056Z,22.53
2022-08-29T16:25:15.614Z,22.39
2022-08-29T16:30:20.248Z,22.36
2022-08-29T16:35:26.285Z,21.63
2022-08-29T16:40:31.636Z,20.84
2022-08-29T16:45:36.508Z,20.63
2022-08-29T16:50:41.879Z,20.65
2022-08-29T16:55:45.846Z,20.39
2022-08-29T17:00:49.477Z,20.00
2022-08-29T17:05:54.822Z,19.96
2022-08-29T17:10:57.767Z,19.58
2022-08-29T17:16:01.857Z,19.02
2022-08-29T17:21:08.185Z,18.78
2022-08-29T17:26:16.261Z,18.51
2022-08-29T17:31:19.839Z,18.62
2022-08-29T17:36:25.095Z,18.16
2022-08-29T17:41:28.697Z,17.86
2022-08-29T17:46:34.090Z,17.80
2022-08-29T17:51:40.410Z,17.46
2022-08-29T17:56:46.647Z,17.30
2022-08-29T18:01:53.604Z,17.19
2022-08-29T18:06:59.148Z,17.17
2022-08-29T18:12:02.732Z,17.00
2022-08-29T18:17:07.305Z,17.14
2022-08-29T18:22:14.360Z,16.10
2022-08-29T18:27:20.253Z,16.37
2022-08-29T18:32:26.853Z,16.29
2022-08-29T18:37:35.103Z,16.30
2022-08-29T18:42:41.471Z,16.15
2022-08-29T18:47:46.631Z,16.28
2022-08-29T18:52:52.859Z,15.93
2022-08-29T18:58:06.948Z,15.73
2022-08-29T19:03:11.694Z,15.67
2022-08-29T19:08:20.542Z,15.56
2022-08-29T19:13:30.665Z,15.08
2022-08-29T19:18:39.140Z,15.19
2022-08-29T19:23:47.365Z,14.98
2022-08-29T19:28:58.665Z,14.90
2022-08-29T19:34:03.455Z,14.69
2022-08-29T19:39:10.435Z,14.59
2022-08-29T19:44:15.030Z,14.58
2022-08-29T19:49:19.043Z,14.55
2022-08-29T19:54:24.631Z,13.87
2022-08-29T19:59:28.575Z,13.62
2022-08-29T20:04:34.884Z,13.96
2022-08-29T20:09:41.187Z,13.73
2022-08-29T20:14:44.960Z,14.05
2022-08-29T20:19:48.607Z,13.87
2022-08-29T20:24:58.497Z,13.84
2022-08-29T20:30:03.430Z,13.23
2022-08-29T20:35:07.849Z,13.55
2022-08-29T20:40:13.519Z,13.38
2022-08-29T20:45:17.174Z,13.16
2022-08-29T20:50:21.495Z,12.81
2022-08-29T20:55:26.493Z,13.17
2022-08-29T21:00:30.238Z,13.07
2022-08-29T21:05:41.297Z,13.07
2022-08-29T21:10:47.696Z,12.84
2022-08-29T21:15:51.894Z,12.78
2022-08-29T21:20:59.304Z,12.77
2022-08-29T21:26:04.705Z,12.72
2022-08-29T21:31:11.115Z,12.78
2022-08-29T21:36:15.410Z,12.71
2022-08-29T21:41:20.556Z,12.45
2022-08-29T21:46:26.835Z,12.33
2022-08-29T21:51:32.125Z,12.27
2022-08-29T21:56:37.085Z,12.17
2022-08-29T22:01:44.097Z,12.24
2022-08-29T22:06:52.795Z,12.34
2022-08-29T22:11:58.308Z,11.76
2022-08-29T22:17:02.454Z,11.85
2022-08-29T22:22:06.533Z,11.80
2022-08-29T22:27:11.506Z,11.72
2022-08-29T22:32:15.158Z,11.99
2022-08-29T22:37:18.971Z,11.99
2022-08-29T22:42:24.716Z,11.95
2022-08-29T22:47:28.895Z,11.75
2022-08-29T22:52:32.575Z,11.68
2022-08-29T22:57:37.678Z,11.67
2022-08-29T23:02:41.962Z,11.63
2022-08-29T23:07:46.160Z,11.45
2022-08-29T23:12:51.742Z,11.41
2022-08-29T23:17:55.303Z,11.34
2022-08-29T23:23:00.418Z,11.36
2022-08-29T23:28:06.080Z,11.05
2022-08-29T23:33:09.765Z,11.26
2022-08-29T23:38:13.260Z,11.23
2022-08-29T23:43:21.087Z,11.01
2022-08-29T23:48:26.187Z,10.89
2022-08-29T23:53:29.958Z,10.97
2022-08-29T23:58:34.950Z,11.16
